Time;durP1;ratioP1;P1;durP2;ratioP2;P2;SDS_P1;SDS_P2;PMS_P1;PMS_P2;Temp;Humidity;BMP_temperature;BMP_pressure;BME280_temperature;BME280_humidity;BME280_pressure;Samples;Min_cycle;Max_cycle;Signal;HPM_P1;HPM_P2
2024/03/21 00:01:26;;;;;;;31.73;13.93;;;;;;;;;;5016321;28;20067;-67
2024/03/21 00:03:52;;;;;;;29.67;14.27;;;;;;;;;;4974654;28;20129;-67
2024/03/21 00:06:19;;;;;;;32.10;13.85;;;;;;;;;;4983365;28;20108;-66
2024/03/21 00:08:46;;;;;;;25.92;12.68;;;;;;;;;;5031243;28;20061;-67
2024/03/21 00:11:15;;;;;;;30.63;13.50;;;;;;;;;;5002394;28;20208;-66
2024/03/21 00:13:41;;;;;;;;;;;;;;;;;;4983394;28;20145;-67
2024/03/21 00:16:12;;;;;;;24.00;11.77;;;;;;;;;;4993943;28;19936;-67
2024/03/21 00:18:42;;;;;;;29.30;14.25;;;;;;;;;;5038398;28;20052;-67
2024/03/21 00:21:08;;;;;;;33.17;14.73;;;;;;;;;;5003264;28;20050;-66
2024/03/21 00:23:35;;;;;;;29.90;13.80;;;;;;;;;;5010060;28;20231;-66
2024/03/21 00:26:01;;;;;;;30.17;14.27;;;;;;;;;;5031002;28;20065;-66
2024/03/21 00:28:30;;;;;;;31.08;13.77;;;;;;;;;;5003438;28;20111;-66
2024/03/21 00:30:56;;;;;;;33.42;14.20;;;;;;;;;;5002624;28;20145;-66
2024/03/21 00:33:23;;;;;;;34.70;14.82;;;;;;;;;;5002424;28;20154;-66
2024/03/21 00:35:48;;;;;;;33.17;14.68;;;;;;;;;;4995508;28;20053;-65
2024/03/21 00:38:15;;;;;;;32.85;14.60;;;;;;;;;;5004307;28;20080;-66
2024/03/21 00:40:41;;;;;;;33.33;14.52;;;;;;;;;;5003217;28;20085;-66
2024/03/21 00:43:07;;;;;;;38.05;14.85;;;;;;;;;;5040713;28;20053;-66
2024/03/21 00:45:35;;;;;;;32.38;14.88;;;;;;;;;;5000196;28;20116;-66
2024/03/21 00:48:03;;;;;;;32.55;14.82;;;;;;;;;;4998153;28;20061;-66
2024/03/21 00:50:29;;;;;;;31.92;14.65;;;;;;;;;;5001548;28;20088;-66
2024/03/21 00:52:55;;;;;;;45.33;21.23;;;;;;;;;;5002074;28;20169;-66
2024/03/21 00:55:21;;;;;;;42.53;19.27;;;;;;;;;;4997055;28;20061;-66
2024/03/21 00:57:48;;;;;;;61.92;28.20;;;;;;;;;;4998309;28;20057;-66
2024/03/21 01:00:14;;;;;;;38.40;16.83;;;;;;;;;;4997970;28;20316;-66
2024/03/21 01:02:42;;;;;;;30.40;14.07;;;;;;;;;;4989208;28;20189;-66
2024/03/21 01:05:08;;;;;;;34.05;14.45;;;;;;;;;;4950926;28;20119;-66
2024/03/21 01:07:35;;;;;;;33.15;14.50;;;;;;;;;;4934190;28;20054;-66
2024/03/21 01:10:01;;;;;;;29.67;13.23;;;;;;;;;;4921437;28;20057;-65
2024/03/21 01:12:27;;;;;;;25.23;11.93;;;;;;;;;;4944377;28;20058;-65
2024/03/21 01:14:53;;;;;;;30.23;13.00;;;;;;;;;;4921426;28;20059;-65
2024/03/21 01:17:20;;;;;;;34.58;13.77;;;;;;;;;;4944657;28;20054;-65
2024/03/21 01:19:47;;;;;;;31.70;13.40;;;;;;;;;;4938598;28;20089;-66
2024/03/21 01:22:14;;;;;;;30.13;13.05;;;;;;;;;;4943091;28;20978;-66
2024/03/21 01:24:39;;;;;;;25.67;11.90;;;;;;;;;;4924034;28;20150;-66
2024/03/21 01:27:06;;;;;;;29.60;12.68;;;;;;;;;;4927493;28;20051;-65
2024/03/21 01:29:33;;;;;;;31.83;13.05;;;;;;;;;;4940117;28;20086;-66
2024/03/21 01:32:00;;;;;;;27.10;12.93;;;;;;;;;;4934171;28;20067;-65
2024/03/21 01:34:25;;;;;;;25.88;12.20;;;;;;;;;;5004269;28;20400;-66
2024/03/21 01:36:53;;;;;;;27.85;12.10;;;;;;;;;;4942518;28;20067;-66
2024/03/21 01:39:19;;;;;;;24.65;11.95;;;;;;;;;;4940377;28;20055;-66
2024/03/21 01:41:46;;;;;;;29.70;12.90;;;;;;;;;;4917040;28;20052;-65
2024/03/21 01:44:15;;;;;;;27.15;12.85;;;;;;;;;;4928815;28;20148;-66
2024/03/21 01:46:42;;;;;;;30.95;12.88;;;;;;;;;;4927277;28;20081;-65
2024/03/21 01:49:09;;;;;;;27.20;11.77;;;;;;;;;;4933284;28;20136;-66
2024/03/21 01:51:37;;;;;;;30.08;12.90;;;;;;;;;;5014123;28;20069;-66
2024/03/21 01:54:05;;;;;;;;;;;;;;;;;;4928823;28;20063;-66
2024/03/21 01:56:32;;;;;;;22.47;10.40;;;;;;;;;;4926510;28;19926;-66
2024/03/21 01:58:57;;;;;;;24.90;12.38;;;;;;;;;;4924164;28;20065;-67
2024/03/21 02:01:26;;;;;;;29.20;11.48;;;;;;;;;;4975948;28;20055;-66
2024/03/21 02:03:52;;;;;;;22.75;10.70;;;;;;;;;;4951694;28;20086;-67
2024/03/21 02:06:20;;;;;;;26.67;11.88;;;;;;;;;;4931507;28;20066;-66
2024/03/21 02:08:46;;;;;;;25.02;11.25;;;;;;;;;;4956829;28;20071;-66
2024/03/21 02:11:14;;;;;;;26.13;11.60;;;;;;;;;;4924206;28;20058;-66
2024/03/21 02:13:41;;;;;;;27.00;12.00;;;;;;;;;;4942195;28;20124;-66
2024/03/21 02:16:08;;;;;;;26.88;11.63;;;;;;;;;;4966955;28;20070;-66
2024/03/21 02:18:33;;;;;;;23.10;10.63;;;;;;;;;;4944087;28;20139;-66
2024/03/21 02:21:03;;;;;;;20.95;9.25;;;;;;;;;;4943848;28;20162;-66
2024/03/21 02:23:31;;;;;;;21.58;9.70;;;;;;;;;;4947770;28;20109;-65
2024/03/21 02:25:58;;;;;;;22.80;9.50;;;;;;;;;;4912966;28;20047;-66
2024/03/21 02:28:24;;;;;;;20.58;9.25;;;;;;;;;;4938634;28;20063;-66
2024/03/21 02:30:52;;;;;;;21.77;8.23;;;;;;;;;;4940003;28;20065;-66
2024/03/21 02:33:17;;;;;;;17.48;7.63;;;;;;;;;;4923935;28;20050;-66
2024/03/21 02:35:44;;;;;;;16.67;7.70;;;;;;;;;;4919581;28;20155;-65
2024/03/21 02:38:10;;;;;;;18.48;7.90;;;;;;;;;;4933367;28;20157;-66
2024/03/21 02:40:38;;;;;;;21.25;7.72;;;;;;;;;;4943633;28;20131;-66
2024/03/21 02:43:04;;;;;;;17.98;6.90;;;;;;;;;;4946444;28;20160;-66
2024/03/21 02:45:31;;;;;;;18.98;7.72;;;;;;;;;;4937178;28;20071;-66
2024/03/21 02:47:56;;;;;;;22.83;8.10;;;;;;;;;;4932153;28;20067;-65
2024/03/21 02:50:23;;;;;;;21.75;8.00;;;;;;;;;;4924611;28;20055;-66
2024/03/21 02:52:49;;;;;;;17.95;8.43;;;;;;;;;;4947874;28;20059;-66
2024/03/21 02:55:16;;;;;;;18.52;8.20;;;;;;;;;;4938768;28;20065;-66
2024/03/21 02:57:44;;;;;;;27.27;9.93;;;;;;;;;;4938852;28;20075;-64
2024/03/21 03:00:12;;;;;;;21.30;9.30;;;;;;;;;;4923539;28;20184;-66
2024/03/21 03:02:39;;;;;;;18.88;8.75;;;;;;;;;;4965278;28;20061;-65
2024/03/21 03:05:10;;;;;;;22.02;9.02;;;;;;;;;;4906558;28;20059;-66
2024/03/21 03:07:37;;;;;;;22.92;9.45;;;;;;;;;;4924852;28;20169;-67
2024/03/21 03:10:04;;;;;;;23.00;9.80;;;;;;;;;;5011829;28;20082;-65
2024/03/21 03:12:30;;;;;;;18.27;8.32;;;;;;;;;;4943113;28;20055;-66
2024/03/21 03:14:58;;;;;;;22.98;9.15;;;;;;;;;;4932820;28;20057;-66
2024/03/21 03:17:24;;;;;;;21.65;9.70;;;;;;;;;;4923859;28;20066;-66
2024/03/21 03:19:50;;;;;;;27.92;9.93;;;;;;;;;;4999579;28;20055;-65
2024/03/21 03:22:18;;;;;;;24.45;10.02;;;;;;;;;;4939239;28;20062;-65
2024/03/21 03:24:46;;;;;;;23.17;9.75;;;;;;;;;;4918496;28;20098;-65
2024/03/21 03:27:12;;;;;;;21.90;9.73;;;;;;;;;;4955504;28;20086;-65
2024/03/21 03:29:39;;;;;;;22.50;9.35;;;;;;;;;;4942762;28;20058;-66
2024/03/21 03:32:08;;;;;;;22.95;10.20;;;;;;;;;;4936162;28;21478;-65
2024/03/21 03:37:18;;;;;;;22.30;9.02;;;;;;;;;;4957611;28;20141;-65
2024/03/21 03:39:45;;;;;;;26.67;10.15;;;;;;;;;;4941814;28;20209;-65
2024/03/21 03:42:12;;;;;;;19.17;9.68;;;;;;;;;;4938684;28;20055;-65
2024/03/21 03:44:39;;;;;;;19.30;9.63;;;;;;;;;;4920307;28;20066;-65
2024/03/21 03:47:07;;;;;;;27.35;10.35;;;;;;;;;;4951142;28;20051;-65
2024/03/21 03:49:34;;;;;;;21.92;10.07;;;;;;;;;;4926866;28;20067;-67
2024/03/21 03:52:01;;;;;;;21.52;10.38;;;;;;;;;;4937512;28;20116;-65
2024/03/21 03:54:28;;;;;;;20.13;10.05;;;;;;;;;;4921109;28;20058;-66
2024/03/21 03:56:54;;;;;;;20.42;8.63;;;;;;;;;;4931625;28;20059;-65
2024/03/21 03:59:20;;;;;;;18.85;9.77;;;;;;;;;;4928596;28;20150;-66
2024/03/21 04:01:47;;;;;;;19.33;10.10;;;;;;;;;;4921705;28;20054;-66
2024/03/21 04:04:14;;;;;;;17.83;8.27;;;;;;;;;;4949287;28;20134;-65
2024/03/21 04:06:41;;;;;;;14.45;5.80;;;;;;;;;;4945923;28;20133;-66
2024/03/21 04:09:07;;;;;;;18.98;8.30;;;;;;;;;;4959736;28;20146;-65
2024/03/21 04:11:34;;;;;;;16.50;8.10;;;;;;;;;;4957928;28;20070;-65
2024/03/21 04:14:00;;;;;;;20.38;7.90;;;;;;;;;;4907361;28;20059;-66
2024/03/21 04:16:27;;;;;;;18.38;7.47;;;;;;;;;;4942629;28;20067;-66
2024/03/21 04:18:52;;;;;;;18.52;7.47;;;;;;;;;;4926605;28;20047;-65
2024/03/21 04:21:20;;;;;;;15.35;7.03;;;;;;;;;;4947945;28;20108;-65
2024/03/21 04:23:46;;;;;;;15.20;7.78;;;;;;;;;;4943821;28;20074;-65
2024/03/21 04:26:13;;;;;;;16.95;7.95;;;;;;;;;;4951217;28;20063;-65
2024/03/21 04:28:39;;;;;;;15.25;6.45;;;;;;;;;;4925478;28;20187;-65
2024/03/21 04:31:06;;;;;;;20.52;6.10;;;;;;;;;;4974429;28;20063;-65
2024/03/21 04:33:31;;;;;;;13.93;6.82;;;;;;;;;;4921273;28;20059;-65
2024/03/21 04:35:58;;;;;;;15.85;6.72;;;;;;;;;;4936054;28;20120;-65
2024/03/21 04:38:26;;;;;;;13.55;6.28;;;;;;;;;;4926519;28;20058;-65
2024/03/21 04:40:53;;;;;;;14.15;5.72;;;;;;;;;;4945810;28;20071;-64
2024/03/21 04:43:19;;;;;;;10.52;5.18;;;;;;;;;;4943259;28;20062;-66
2024/03/21 04:45:49;;;;;;;12.23;5.15;;;;;;;;;;4939540;28;20133;-66
2024/03/21 04:48:15;;;;;;;11.70;5.13;;;;;;;;;;4965216;28;20046;-65
2024/03/21 04:50:42;;;;;;;9.98;4.53;;;;;;;;;;4945126;28;20073;-65
2024/03/21 04:53:08;;;;;;;12.20;4.90;;;;;;;;;;4925306;28;20069;-65
2024/03/21 04:55:38;;;;;;;10.57;4.40;;;;;;;;;;4919976;28;20063;-66
2024/03/21 04:58:04;;;;;;;9.73;3.45;;;;;;;;;;4919258;28;20059;-65
2024/03/21 05:00:31;;;;;;;6.25;2.97;;;;;;;;;;4943397;28;20090;-65
2024/03/21 05:02:56;;;;;;;6.05;2.97;;;;;;;;;;4923964;28;20055;-64
2024/03/21 05:05:23;;;;;;;7.63;3.28;;;;;;;;;;4911422;28;20210;-66
2024/03/21 05:07:50;;;;;;;7.80;3.13;;;;;;;;;;4921505;28;20171;-65
2024/03/21 05:10:20;;;;;;;5.90;3.08;;;;;;;;;;4923777;28;20063;-65
2024/03/21 05:12:47;;;;;;;7.45;3.55;;;;;;;;;;4927447;28;20062;-65
2024/03/21 05:15:14;;;;;;;8.15;3.40;;;;;;;;;;4924998;28;20062;-64
2024/03/21 05:17:39;;;;;;;6.65;3.13;;;;;;;;;;4942020;28;20066;-65
2024/03/21 05:20:10;;;;;;;6.75;3.30;;;;;;;;;;4920531;28;20059;-65
2024/03/21 05:22:36;;;;;;;9.25;3.85;;;;;;;;;;4941444;28;20067;-66
2024/03/21 05:25:03;;;;;;;8.25;3.65;;;;;;;;;;4952449;28;20063;-65
2024/03/21 05:27:29;;;;;;;13.88;5.68;;;;;;;;;;4923831;28;20062;-65
2024/03/21 05:29:57;;;;;;;18.35;7.40;;;;;;;;;;4925754;28;20048;-66
2024/03/21 05:32:23;;;;;;;8.05;4.00;;;;;;;;;;5014377;28;20070;-68
2024/03/21 05:34:50;;;;;;;8.57;4.20;;;;;;;;;;4933488;28;20482;-65
2024/03/21 05:37:15;;;;;;;10.05;4.38;;;;;;;;;;4924704;28;20117;-65
2024/03/21 05:39:42;;;;;;;8.80;4.38;;;;;;;;;;4918447;28;20050;-66
2024/03/21 05:42:12;;;;;;;9.15;4.30;;;;;;;;;;4943554;28;20075;-65
2024/03/21 05:44:40;;;;;;;10.55;3.88;;;;;;;;;;4917548;28;20061;-66
2024/03/21 05:47:20;;;;;;;10.35;4.35;;;;;;;;;;4954846;28;20065;-65
2024/03/21 05:49:47;;;;;;;10.98;4.90;;;;;;;;;;4937077;28;20193;-65
2024/03/21 05:52:13;;;;;;;11.07;4.38;;;;;;;;;;4920372;28;20075;-65
2024/03/21 05:54:40;;;;;;;22.10;9.45;;;;;;;;;;4933664;28;20085;-65
2024/03/21 05:57:07;;;;;;;14.25;6.68;;;;;;;;;;4922277;28;20082;-65
2024/03/21 05:59:33;;;;;;;8.40;4.60;;;;;;;;;;4921046;28;20062;-65
2024/03/21 06:01:59;;;;;;;9.88;5.22;;;;;;;;;;4931144;28;20067;-67
2024/03/21 06:04:28;;;;;;;4.95;2.28;;;;;;;;;;4941325;28;20073;-66
2024/03/21 06:06:54;;;;;;;10.95;4.13;;;;;;;;;;4923834;28;20063;-66
2024/03/21 06:09:23;;;;;;;13.80;4.43;;;;;;;;;;4939687;28;20058;-67
2024/03/21 06:11:49;;;;;;;7.78;3.63;;;;;;;;;;4930668;28;20236;-66
2024/03/21 06:14:18;;;;;;;9.05;3.00;;;;;;;;;;4917710;28;20063;-65
2024/03/21 06:16:52;;;;;;;6.43;2.72;;;;;;;;;;5004466;28;20067;-67
2024/03/21 06:19:18;;;;;;;26.17;8.45;;;;;;;;;;4962396;28;20058;-66
2024/03/21 06:21:49;;;;;;;8.48;3.97;;;;;;;;;;4923746;28;20069;-67
2024/03/21 06:24:19;;;;;;;7.53;2.63;;;;;;;;;;5001663;28;20055;-66
2024/03/21 06:26:45;;;;;;;6.20;2.47;;;;;;;;;;4922612;28;20062;-67
2024/03/21 06:29:12;;;;;;;5.88;2.35;;;;;;;;;;4921577;28;20066;-66
2024/03/21 06:31:38;;;;;;;7.80;3.20;;;;;;;;;;4936226;28;20071;-66
2024/03/21 06:34:07;;;;;;;5.82;2.20;;;;;;;;;;4882948;28;20186;-67
2024/03/21 06:36:32;;;;;;;;;;;;;;;;;;4944639;28;20055;-66
2024/03/21 06:39:01;;;;;;;4.25;1.77;;;;;;;;;;4923560;28;19930;-66
2024/03/21 06:41:27;;;;;;;4.85;2.10;;;;;;;;;;5016412;28;20121;-66
2024/03/21 06:44:00;;;;;;;7.75;2.22;;;;;;;;;;4933771;28;20063;-65
2024/03/21 06:46:26;;;;;;;4.20;2.00;;;;;;;;;;4940600;28;20140;-66
2024/03/21 06:48:53;;;;;;;3.17;1.67;;;;;;;;;;4959067;28;20082;-66
2024/03/21 06:51:21;;;;;;;8.45;1.92;;;;;;;;;;4961784;28;20043;-66
2024/03/21 06:53:47;;;;;;;9.60;1.95;;;;;;;;;;5005602;28;21249;-66
2024/03/21 06:56:17;;;;;;;9.40;1.75;;;;;;;;;;4939837;28;20055;-66
2024/03/21 06:58:44;;;;;;;6.57;1.70;;;;;;;;;;4924349;28;20055;-66
2024/03/21 07:01:10;;;;;;;4.93;1.50;;;;;;;;;;4924096;28;20132;-66
2024/03/21 07:03:37;;;;;;;6.13;1.50;;;;;;;;;;4945641;28;20047;-66
2024/03/21 07:06:04;;;;;;;4.90;1.70;;;;;;;;;;4969264;28;20055;-66
2024/03/21 07:08:30;;;;;;;5.15;1.55;;;;;;;;;;4956204;28;20116;-66
2024/03/21 07:10:57;;;;;;;6.05;1.38;;;;;;;;;;4929303;28;20177;-65
2024/03/21 07:13:25;;;;;;;10.80;1.30;;;;;;;;;;4939711;28;20115;-66
2024/03/21 07:15:51;;;;;;;5.03;1.40;;;;;;;;;;4903555;28;21104;-66
2024/03/21 07:18:17;;;;;;;4.57;1.48;;;;;;;;;;4923607;28;20054;-66
2024/03/21 07:20:44;;;;;;;8.23;1.58;;;;;;;;;;4923083;28;20066;-66
2024/03/21 07:23:12;;;;;;;3.92;1.10;;;;;;;;;;4928968;28;20059;-66
2024/03/21 07:25:48;;;;;;;4.35;1.40;;;;;;;;;;4945084;28;20093;-64
2024/03/21 07:28:17;;;;;;;3.03;1.20;;;;;;;;;;4952445;28;20150;-65
2024/03/21 07:30:47;;;;;;;6.30;1.58;;;;;;;;;;4929711;28;20062;-66
2024/03/21 07:33:13;;;;;;;2.78;1.00;;;;;;;;;;4957051;28;20067;-65
2024/03/21 07:35:42;;;;;;;3.35;1.13;;;;;;;;;;4978252;28;20101;-65
2024/03/21 07:38:08;;;;;;;;;;;;;;;;;;4950247;28;20074;-63
2024/03/21 07:40:35;;;;;;;5.85;1.13;;;;;;;;;;4943325;28;20376;-64
2024/03/21 07:43:01;;;;;;;3.88;1.10;;;;;;;;;;4943187;28;20124;-64
2024/03/21 07:45:27;;;;;;;5.38;1.33;;;;;;;;;;4936684;28;20076;-65
2024/03/21 07:47:55;;;;;;;2.65;1.25;;;;;;;;;;4938465;28;20047;-64
2024/03/21 07:50:21;;;;;;;5.28;1.30;;;;;;;;;;4945372;28;20047;-65
2024/03/21 07:52:47;;;;;;;9.35;2.38;;;;;;;;;;4961929;28;20047;-64
2024/03/21 07:55:20;;;;;;;7.72;1.30;;;;;;;;;;4932080;28;20223;-66
2024/03/21 07:57:48;;;;;;;5.30;1.15;;;;;;;;;;4960153;28;20078;-67
2024/03/21 08:00:20;;;;;;;9.07;1.47;;;;;;;;;;4973393;28;20054;-66
2024/03/21 08:02:48;;;;;;;4.28;1.30;;;;;;;;;;4940909;28;20139;-66
2024/03/21 08:05:19;;;;;;;10.80;2.20;;;;;;;;;;4926882;28;20058;-65
2024/03/21 08:07:45;;;;;;;13.88;2.10;;;;;;;;;;4940677;28;20062;-65
2024/03/21 08:10:12;;;;;;;7.07;1.48;;;;;;;;;;4926626;28;20073;-64
2024/03/21 08:12:38;;;;;;;5.13;1.70;;;;;;;;;;4944747;28;20068;-65
2024/03/21 08:15:08;;;;;;;22.27;3.75;;;;;;;;;;4944122;28;20062;-65
2024/03/21 08:17:34;;;;;;;1.90;1.00;;;;;;;;;;4933760;28;20058;-65
2024/03/21 08:20:09;;;;;;;9.13;1.50;;;;;;;;;;4938322;28;20623;-65
2024/03/21 08:22:36;;;;;;;5.40;1.30;;;;;;;;;;4945203;28;20073;-66
2024/03/21 08:25:06;;;;;;;6.35;1.58;;;;;;;;;;4926839;28;20054;-66
2024/03/21 08:27:32;;;;;;;2.63;0.95;;;;;;;;;;4943707;28;20086;-64
2024/03/21 08:30:01;;;;;;;10.40;1.38;;;;;;;;;;4921814;28;20058;-65
2024/03/21 08:32:30;;;;;;;4.88;1.20;;;;;;;;;;4949169;28;20047;-65
2024/03/21 08:34:59;;;;;;;6.65;1.25;;;;;;;;;;4941256;28;20059;-65
2024/03/21 08:37:25;;;;;;;3.58;1.17;;;;;;;;;;4941612;28;20101;-65
2024/03/21 08:39:54;;;;;;;4.28;1.00;;;;;;;;;;4939227;28;20181;-66
2024/03/21 08:42:20;;;;;;;4.00;1.15;;;;;;;;;;4957529;28;20058;-65
2024/03/21 08:44:48;;;;;;;5.43;1.30;;;;;;;;;;4941811;28;20047;-65
2024/03/21 08:47:14;;;;;;;4.38;1.13;;;;;;;;;;5019471;28;20051;-66
2024/03/21 08:49:41;;;;;;;5.78;1.75;;;;;;;;;;4927450;28;20050;-65
2024/03/21 08:52:07;;;;;;;6.95;2.50;;;;;;;;;;4939384;28;20216;-65
2024/03/21 08:54:34;;;;;;;5.45;1.27;;;;;;;;;;4910679;28;20059;-65
2024/03/21 08:57:03;;;;;;;3.60;1.27;;;;;;;;;;5016894;28;20059;-65
2024/03/21 08:59:31;;;;;;;3.95;1.48;;;;;;;;;;4946533;28;20059;-65
2024/03/21 09:01:57;;;;;;;4.43;0.98;;;;;;;;;;4922168;28;20055;-66
2024/03/21 09:04:24;;;;;;;11.45;1.30;;;;;;;;;;4901990;28;20059;-65
2024/03/21 09:06:50;;;;;;;4.45;1.45;;;;;;;;;;4937704;28;20051;-65
2024/03/21 09:09:20;;;;;;;8.50;1.30;;;;;;;;;;4942608;28;20074;-66
2024/03/21 09:11:46;;;;;;;9.98;2.65;;;;;;;;;;4929402;28;20079;-66
2024/03/21 09:14:15;;;;;;;5.45;1.50;;;;;;;;;;4940934;28;20521;-65
2024/03/21 09:16:41;;;;;;;15.77;4.22;;;;;;;;;;4943299;28;20066;-65
2024/03/21 09:19:08;;;;;;;22.90;6.63;;;;;;;;;;4927751;28;20066;-65
2024/03/21 09:21:33;;;;;;;9.77;2.13;;;;;;;;;;4942319;28;20074;-65
2024/03/21 09:24:00;;;;;;;6.00;1.33;;;;;;;;;;4913381;28;20062;-65
2024/03/21 09:26:26;;;;;;;3.88;1.15;;;;;;;;;;4919048;28;20071;-65
2024/03/21 09:28:54;;;;;;;5.65;1.58;;;;;;;;;;4941389;28;20066;-65
2024/03/21 09:31:21;;;;;;;8.88;2.40;;;;;;;;;;4927387;28;20138;-66
2024/03/21 09:33:48;;;;;;;6.78;2.05;;;;;;;;;;4912585;28;20660;-64
2024/03/21 09:36:16;;;;;;;10.57;1.85;;;;;;;;;;4952382;28;20059;-64
2024/03/21 09:38:47;;;;;;;5.75;1.48;;;;;;;;;;4940296;28;20462;-64
2024/03/21 09:41:14;;;;;;;7.18;1.90;;;;;;;;;;4949168;28;20109;-65
2024/03/21 09:43:45;;;;;;;3.75;1.00;;;;;;;;;;4938403;28;20076;-65
2024/03/21 09:46:17;;;;;;;7.90;1.35;;;;;;;;;;4911906;28;20058;-65
2024/03/21 09:48:47;;;;;;;3.85;1.38;;;;;;;;;;4923638;28;20085;-65
2024/03/21 09:51:21;;;;;;;7.55;2.20;;;;;;;;;;4945903;28;20058;-65
2024/03/21 09:53:49;;;;;;;6.50;1.40;;;;;;;;;;4933657;28;20071;-66
2024/03/21 09:56:17;;;;;;;7.13;1.87;;;;;;;;;;4918811;28;20061;-65
2024/03/21 09:58:43;;;;;;;12.00;2.10;;;;;;;;;;4942059;28;20316;-65
2024/03/21 10:01:20;;;;;;;8.35;1.95;;;;;;;;;;5019197;28;20070;-65
2024/03/21 10:03:53;;;;;;;8.32;1.70;;;;;;;;;;4931863;28;20053;-65
2024/03/21 10:06:21;;;;;;;6.30;1.42;;;;;;;;;;4952926;28;20063;-65
2024/03/21 10:08:46;;;;;;;3.03;1.40;;;;;;;;;;4926265;28;20279;-64
2024/03/21 10:11:18;;;;;;;4.15;1.48;;;;;;;;;;4925993;28;20055;-65
2024/03/21 10:13:48;;;;;;;3.47;1.30;;;;;;;;;;4932895;28;20082;-66
2024/03/21 10:16:18;;;;;;;3.13;1.25;;;;;;;;;;4926745;28;20062;-65
2024/03/21 10:18:45;;;;;;;7.05;1.52;;;;;;;;;;4940771;28;20063;-64
2024/03/21 10:21:16;;;;;;;8.37;1.50;;;;;;;;;;4949865;28;20059;-65
2024/03/21 10:23:45;;;;;;;6.63;1.55;;;;;;;;;;4919209;28;20303;-65
2024/03/21 10:26:15;;;;;;;8.82;1.55;;;;;;;;;;4939194;28;20054;-65
2024/03/21 10:28:41;;;;;;;6.78;1.50;;;;;;;;;;4940781;28;20086;-66
2024/03/21 10:31:13;;;;;;;6.65;1.40;;;;;;;;;;4925124;28;20062;-65
2024/03/21 10:33:39;;;;;;;20.08;6.97;;;;;;;;;;5013219;28;20063;-64
2024/03/21 10:36:06;;;;;;;9.77;2.72;;;;;;;;;;4921201;28;20052;-64
2024/03/21 10:38:33;;;;;;;8.07;1.75;;;;;;;;;;4940326;28;20062;-65
2024/03/21 10:41:04;;;;;;;4.20;1.20;;;;;;;;;;4970436;28;20055;-65
2024/03/21 10:43:34;;;;;;;6.00;1.60;;;;;;;;;;4958514;28;20051;-65
2024/03/21 10:46:02;;;;;;;8.57;1.45;;;;;;;;;;4915921;28;20054;-65
2024/03/21 10:48:29;;;;;;;7.00;1.23;;;;;;;;;;4947033;28;20070;-65
2024/03/21 10:50:56;;;;;;;4.32;1.25;;;;;;;;;;4941504;28;20055;-64
2024/03/21 10:53:23;;;;;;;6.10;1.60;;;;;;;;;;4920780;28;20077;-65
2024/03/21 10:55:52;;;;;;;8.23;1.48;;;;;;;;;;4907686;28;20066;-64
2024/03/21 10:58:21;;;;;;;5.35;1.02;;;;;;;;;;4938096;28;20063;-64
2024/03/21 11:00:52;;;;;;;;;;;;;;;;;;4941585;28;20378;-65
2024/03/21 11:03:19;;;;;;;6.75;1.13;;;;;;;;;;4942885;28;19954;-64
2024/03/21 11:05:49;;;;;;;4.90;1.10;;;;;;;;;;4918545;28;20132;-66
2024/03/21 11:08:25;;;;;;;9.65;1.45;;;;;;;;;;5018548;28;20054;-65
2024/03/21 11:10:56;;;;;;;5.57;1.75;;;;;;;;;;4928562;28;20112;-65
2024/03/21 11:13:23;;;;;;;2.90;1.10;;;;;;;;;;4926362;28;20078;-65
2024/03/21 11:15:53;;;;;;;4.38;1.10;;;;;;;;;;4882362;28;20112;-65
2024/03/21 11:18:19;;;;;;;1.63;1.05;;;;;;;;;;4924305;28;20252;-65
2024/03/21 11:20:49;;;;;;;4.22;1.05;;;;;;;;;;4923890;28;20081;-64
2024/03/21 11:23:17;;;;;;;6.88;1.27;;;;;;;;;;4926713;28;20073;-65
2024/03/21 11:25:46;;;;;;;7.20;1.55;;;;;;;;;;4937688;28;20161;-64
2024/03/21 11:28:14;;;;;;;6.55;1.13;;;;;;;;;;4922661;28;20055;-65
2024/03/21 11:30:43;;;;;;;7.82;1.10;;;;;;;;;;4938311;28;20065;-65
2024/03/21 11:33:11;;;;;;;6.03;1.55;;;;;;;;;;4941422;28;20071;-65
2024/03/21 11:35:39;;;;;;;5.25;1.02;;;;;;;;;;4944205;28;20059;-66
2024/03/21 11:38:06;;;;;;;4.70;1.10;;;;;;;;;;4921302;28;21407;-65
2024/03/21 11:40:33;;;;;;;15.27;4.22;;;;;;;;;;4950067;28;20055;-65
2024/03/21 11:43:04;;;;;;;8.90;2.67;;;;;;;;;;4940697;28;20059;-65
2024/03/21 11:45:31;;;;;;;10.73;2.17;;;;;;;;;;4924586;28;20090;-65
2024/03/21 11:48:09;;;;;;;11.68;1.50;;;;;;;;;;4948377;28;20136;-65
2024/03/21 11:50:38;;;;;;;7.50;1.33;;;;;;;;;;4940998;28;20145;-65
2024/03/21 11:53:05;;;;;;;6.85;1.30;;;;;;;;;;4945041;28;20091;-65
2024/03/21 11:55:31;;;;;;;4.60;1.05;;;;;;;;;;4937784;28;20078;-65
2024/03/21 11:57:58;;;;;;;6.88;1.45;;;;;;;;;;4922255;28;20214;-65
2024/03/21 12:00:24;;;;;;;6.53;1.40;;;;;;;;;;5019799;28;20069;-64
2024/03/21 12:02:54;;;;;;;7.35;2.30;;;;;;;;;;5018975;28;20046;-64
2024/03/21 12:05:20;;;;;;;9.15;3.13;;;;;;;;;;4956152;28;20064;-65
2024/03/21 12:07:47;;;;;;;4.18;1.42;;;;;;;;;;5029899;28;20097;-65
2024/03/21 12:10:13;;;;;;;2.72;1.30;;;;;;;;;;5008512;28;20064;-64
2024/03/21 12:12:40;;;;;;;2.38;1.17;;;;;;;;;;5013362;28;20040;-64
2024/03/21 12:15:14;;;;;;;5.28;1.25;;;;;;;;;;5028495;28;20492;-64
2024/03/21 12:17:41;;;;;;;4.15;1.17;;;;;;;;;;5014252;28;20061;-65
2024/03/21 12:20:13;;;;;;;3.65;1.27;;;;;;;;;;5032026;28;20071;-65
2024/03/21 12:22:40;;;;;;;4.85;1.40;;;;;;;;;;5028496;28;20054;-65
2024/03/21 12:25:09;;;;;;;6.63;1.73;;;;;;;;;;5007631;28;20172;-65
2024/03/21 12:27:35;;;;;;;4.07;1.33;;;;;;;;;;5000705;28;20057;-65
2024/03/21 12:30:04;;;;;;;4.20;1.30;;;;;;;;;;5004173;28;20045;-65
2024/03/21 12:32:33;;;;;;;7.55;2.10;;;;;;;;;;5019491;28;20068;-65
2024/03/21 12:34:59;;;;;;;10.75;1.83;;;;;;;;;;5007298;28;20511;-65
2024/03/21 12:37:27;;;;;;;4.20;1.70;;;;;;;;;;5017671;28;20069;-65
2024/03/21 12:39:53;;;;;;;5.30;1.65;;;;;;;;;;5023300;28;20060;-66
2024/03/21 12:42:20;;;;;;;6.82;1.77;;;;;;;;;;5010803;28;20065;-65
2024/03/21 12:44:50;;;;;;;5.53;1.55;;;;;;;;;;5016344;28;20083;-65
2024/03/21 12:47:20;;;;;;;5.53;1.85;;;;;;;;;;5029232;28;20190;-65
2024/03/21 12:49:46;;;;;;;3.55;1.73;;;;;;;;;;5004251;28;20072;-65
2024/03/21 12:52:14;;;;;;;7.80;2.17;;;;;;;;;;5003951;28;20057;-65
2024/03/21 12:54:44;;;;;;;6.35;2.03;;;;;;;;;;5000580;28;20109;-66
2024/03/21 12:57:11;;;;;;;8.55;2.30;;;;;;;;;;5030648;28;20807;-66
2024/03/21 12:59:38;;;;;;;6.32;2.17;;;;;;;;;;5027816;28;20072;-64
2024/03/21 13:02:07;;;;;;;6.50;2.33;;;;;;;;;;4947168;28;20123;-66
2024/03/21 13:04:34;;;;;;;6.72;2.30;;;;;;;;;;4917768;28;20435;-65
2024/03/21 13:07:00;;;;;;;5.80;2.47;;;;;;;;;;4949727;28;20066;-65
2024/03/21 13:09:26;;;;;;;9.48;2.75;;;;;;;;;;4937933;28;20066;-65
2024/03/21 13:11:55;;;;;;;8.15;2.80;;;;;;;;;;4950827;28;20063;-65
2024/03/21 13:14:23;;;;;;;5.35;2.70;;;;;;;;;;4925912;28;20067;-65
2024/03/21 13:16:52;;;;;;;8.73;2.90;;;;;;;;;;4934727;28;20129;-65
2024/03/21 13:19:18;;;;;;;9.50;3.15;;;;;;;;;;4931501;28;20066;-65
2024/03/21 13:21:45;;;;;;;8.70;3.30;;;;;;;;;;4946758;28;20058;-64
2024/03/21 13:24:11;;;;;;;7.30;3.50;;;;;;;;;;4928116;28;20058;-65
2024/03/21 13:26:37;;;;;;;6.53;3.33;;;;;;;;;;4940527;28;20105;-65
2024/03/21 13:29:05;;;;;;;8.02;3.53;;;;;;;;;;4972763;28;20225;-65
2024/03/21 13:31:33;;;;;;;14.32;4.45;;;;;;;;;;4935178;28;20059;-65
2024/03/21 13:33:59;;;;;;;11.10;4.32;;;;;;;;;;4941929;28;20057;-66
2024/03/21 13:36:25;;;;;;;9.00;4.55;;;;;;;;;;4934188;28;20182;-65
2024/03/21 13:38:57;;;;;;;8.63;3.97;;;;;;;;;;4931437;28;20430;-64
2024/03/21 13:41:24;;;;;;;8.48;4.32;;;;;;;;;;4925847;28;20217;-65
2024/03/21 13:43:52;;;;;;;14.82;4.72;;;;;;;;;;4941433;28;20129;-64
2024/03/21 13:46:21;;;;;;;9.48;4.88;;;;;;;;;;4939854;28;20070;-65
2024/03/21 13:48:46;;;;;;;;;;;;;;;;;;5004603;28;20063;-65
2024/03/21 13:51:13;;;;;;;11.52;5.80;;;;;;;;;;4950991;28;19922;-65
2024/03/21 13:53:41;;;;;;;14.98;7.07;;;;;;;;;;4951301;28;20058;-66
2024/03/21 13:56:10;;;;;;;11.20;5.45;;;;;;;;;;4962776;28;20051;-65
2024/03/21 13:58:40;;;;;;;10.23;5.53;;;;;;;;;;4945004;28;20111;-65
2024/03/21 14:01:07;;;;;;;9.88;5.28;;;;;;;;;;4935208;28;20102;-66
2024/03/21 14:03:37;;;;;;;8.90;4.75;;;;;;;;;;4998733;28;20141;-65
2024/03/21 14:06:08;;;;;;;10.52;4.95;;;;;;;;;;4902448;28;20070;-65
2024/03/21 14:08:34;;;;;;;10.75;4.78;;;;;;;;;;4919734;28;20070;-65
2024/03/21 14:11:02;;;;;;;9.48;4.32;;;;;;;;;;4931422;28;20059;-65
2024/03/21 14:13:28;;;;;;;;;;;;;;;;;;4933407;28;20154;-65
2024/03/21 14:15:55;;;;;;;8.98;4.50;;;;;;;;;;4911920;28;19930;-65
2024/03/21 14:18:21;;;;;;;7.97;3.90;;;;;;;;;;4940470;28;20071;-65
2024/03/21 14:20:56;;;;;;;6.35;3.65;;;;;;;;;;4927814;28;20206;-66
2024/03/21 14:23:24;;;;;;;10.07;4.10;;;;;;;;;;4930416;28;20733;-64
2024/03/21 14:25:51;;;;;;;10.55;3.75;;;;;;;;;;4983513;28;20087;-66
2024/03/21 14:28:17;;;;;;;9.63;3.00;;;;;;;;;;5035105;28;20061;-65
2024/03/21 14:30:44;;;;;;;5.97;2.50;;;;;;;;;;5018201;28;20060;-65
2024/03/21 14:33:10;;;;;;;8.15;2.20;;;;;;;;;;5031918;28;20056;-66
2024/03/21 14:35:36;;;;;;;5.30;2.25;;;;;;;;;;5030626;28;20052;-65
2024/03/21 14:38:04;;;;;;;4.78;2.00;;;;;;;;;;5031374;28;20064;-64
2024/03/21 14:40:30;;;;;;;9.23;1.90;;;;;;;;;;5026936;28;20542;-65